Englewood, CO (80155)

11:47 AM MDT on March 24, 2017 (GMT -0600)
South Broadway Heights | | Change Station

Elev 5387 ft 39.65 °N, 104.98 °W | Updated 54 seconds ago

Overcast
Overcast
46.7 °F
Feels Like 44 °F
N
5.0
Wind Variable Wind from NNE
Gusts 18.0 mph

Today
High -- | Low -- °F
--% Chance of Precip.
Yesterday
High -- | Low -- °F
Precip. -- in
Pressure 30.11 in
Visibility 10.0 miles
Clouds Scattered Clouds 2800 ft
Mostly Cloudy 3300 ft
Overcast 4200 ft
Windchill 44 °F
Dew Point 32 °F
Humidity 56%
Rainfall 0.40 in
Snow Depth Not available.
6:56 AM 7:16 PM
Waning Crescent, 14% visible
METAR KAPA 241653Z 36023G29KT 10SM SCT028 BKN033 OVC042 04/04 A3011 RMK AO2 PK WND 35035/1612 SLP196 T00390039 $
Pressure 30.11 in
Visibility 10.0 miles
Clouds Scattered Clouds 2800 ft
Mostly Cloudy 3300 ft
Overcast 4200 ft
Windchill 44 °F
Dew Point 32 °F
Humidity 56%
Rainfall 0.40 in
Snow Depth Not available.
6:56 AM 7:16 PM
Waning Crescent, 14% visible
METAR KAPA 241653Z 36023G29KT 10SM SCT028 BKN033 OVC042 04/04 A3011 RMK AO2 PK WND 35035/1612 SLP196 T00390039 $

Get Severe Weather Alerts

Thanks for signing up!

Be on the lookout for a verification email in your inbox.

You'll start receiving the daily forecast at 8 AM.

×

10-Day Weather Forecast

Almanac

Astronomy

Mar. 24, 2017 Rise Set
Actual Time
Civil Twilight
Nautical Twilight
Astronomical Twilight
Moon
Length of Visible Light
Length of Day
Tomorrow will be .
, % of the Moon is Illuminated

Today's Extremes

State Highs State Lows

Community

WunderPhotos

Upload Photos

1,962,540 photos uploaded!

WunderBlog® & News

Nearby

Air Quality

  Air Quality AQ Index Pollutant
Not available.

Snow Depth

Station Depth Elevation

Earthquake Activity

City Distance Mag. Time & Date
Minimum magnitude displayed is 2.5.

Earthquake Activity

City Distance Mag. Time & Date
Minimum magnitude displayed is 2.5.

Coastal Water Temperatures

Place Temperature

Stations

Nearby Weather Stations

Station Location Temp. Windchill Dew Point Humidity Wind Precip. Elev Updated Type
                   

Watches & Warnings

There are currently no watches in effect.